Terminal Aerodrome Forecast
Issued by NWS Sterling, VA

Current Version | Previous Version | Graphics & Text | Print | Product List | Glossary On
Versions: 1 2 3 4 5 6 7 8 9 10 11 12 13 14 15 16 17 18 19 20 21 22 23 24 25 26
000
FTUS41 KLWX 302320
TAFDCA
TAF
KDCA 302320Z 0100/0124 14007KT 5SM -RA BR BKN025 OVC050
     FM010600 13008KT 3SM RA BR SCT008 OVC015
     FM011200 13007KT 5SM -RA BR BKN008 OVC015
     FM011500 16007KT P6SM BKN008 OVC015
     FM012200 VRB04KT 3SM SHRA SCT008 BKN015 OVC050=

USA.gov is the U.S. government's official web portal to all federal, state and local government web resources and services.